createdAt,value
2023-04-21T00:02:16.331Z,52.03
2023-04-21T00:04:47.389Z,52.35
2023-04-21T00:07:16.217Z,52.19
2023-04-21T00:09:44.078Z,52.58
2023-04-21T00:12:12.197Z,52.38
2023-04-21T00:14:40.243Z,52.17
2023-04-21T00:17:07.902Z,52.27
2023-04-21T00:19:36.046Z,52.54
2023-04-21T00:22:04.752Z,52.21
2023-04-21T00:24:33.509Z,52.66
2023-04-21T00:27:04.226Z,52.64
2023-04-21T00:29:31.949Z,52.72
2023-04-21T00:32:00.986Z,52.75
2023-04-21T00:34:31.723Z,52.27
2023-04-21T00:36:59.540Z,52.40
2023-04-21T00:39:28.292Z,52.69
2023-04-21T00:41:56.179Z,52.56
2023-04-21T00:44:24.999Z,52.80
2023-04-21T00:46:52.868Z,52.30
2023-04-21T00:49:25.799Z,52.20
2023-04-21T00:51:54.889Z,52.34
2023-04-21T00:54:24.884Z,52.49
2023-04-21T00:56:55.524Z,52.16
2023-04-21T00:59:23.415Z,52.69
2023-04-21T01:01:53.126Z,52.33
2023-04-21T01:04:22.465Z,52.36
2023-04-21T01:06:52.502Z,52.42
2023-04-21T01:09:21.928Z,52.42
2023-04-21T01:12:10.538Z,52.47
2023-04-21T01:14:40.124Z,52.61
2023-04-21T01:17:08.907Z,52.37
2023-04-21T01:19:42.603Z,52.47
2023-04-21T01:22:12.582Z,52.59
2023-04-21T01:24:41.890Z,52.48
2023-04-21T01:27:15.242Z,52.64
2023-04-21T01:29:43.835Z,52.49
2023-04-21T01:32:14.633Z,52.71
2023-04-21T01:34:43.207Z,52.42
2023-04-21T01:37:14.412Z,52.53
2023-04-21T01:39:45.261Z,52.65
2023-04-21T01:42:13.609Z,52.49
2023-04-21T01:44:42.902Z,52.61
2023-04-21T01:47:11.594Z,52.70
2023-04-21T01:49:40.674Z,52.82
2023-04-21T01:52:08.725Z,52.66
2023-04-21T01:54:37.691Z,52.50
2023-04-21T01:57:07.058Z,52.88
2023-04-21T01:59:34.978Z,52.81
2023-04-21T02:02:04.029Z,52.83
2023-04-21T02:04:34.647Z,52.57
2023-04-21T02:07:02.796Z,52.68
2023-04-21T02:09:31.352Z,52.87
2023-04-21T02:11:59.247Z,52.76
2023-04-21T02:14:28.258Z,52.69
2023-04-21T02:16:56.477Z,52.77
2023-04-21T02:19:24.739Z,52.56
2023-04-21T02:21:52.456Z,52.66
2023-04-21T02:24:22.859Z,52.74
2023-04-21T02:26:50.580Z,52.40
2023-04-21T02:29:18.576Z,52.73
2023-04-21T02:31:58.776Z,52.66
2023-04-21T02:34:28.953Z,52.74
2023-04-21T02:36:56.909Z,52.73
2023-04-21T02:39:24.703Z,52.61
2023-04-21T02:41:52.485Z,52.58
2023-04-21T02:44:21.803Z,52.86
2023-04-21T02:46:49.593Z,52.88
2023-04-21T02:49:17.692Z,52.90
2023-04-21T02:51:45.727Z,52.93
2023-04-21T02:54:13.720Z,53.01
2023-04-21T02:56:41.411Z,52.93
2023-04-21T02:59:09.126Z,53.03
2023-04-21T03:01:36.766Z,52.93
2023-04-21T03:04:04.971Z,53.01
2023-04-21T03:06:33.895Z,52.85
2023-04-21T03:09:01.701Z,52.90
2023-04-21T03:11:29.964Z,53.02
2023-04-21T03:13:57.763Z,52.76
2023-04-21T03:16:25.570Z,52.72
2023-04-21T03:18:53.671Z,52.91
2023-04-21T03:21:21.510Z,52.92
2023-04-21T03:23:49.293Z,53.42
2023-04-21T03:26:17.058Z,53.28
2023-04-21T03:28:44.925Z,53.17
2023-04-21T03:31:14.108Z,53.00
2023-04-21T03:33:41.956Z,53.06
2023-04-21T03:36:09.926Z,52.91
2023-04-21T03:38:39.304Z,52.78
2023-04-21T03:41:08.233Z,52.82
2023-04-21T03:43:36.644Z,53.32
2023-04-21T03:46:04.718Z,53.09
2023-04-21T03:48:32.432Z,52.97
2023-04-21T03:51:00.145Z,52.87
2023-04-21T03:53:28.260Z,52.97
2023-04-21T03:55:55.927Z,53.17
2023-04-21T03:58:23.581Z,53.27
2023-04-21T04:00:51.360Z,53.16
2023-04-21T04:03:21.730Z,53.47
2023-04-21T04:05:51.036Z,53.43
2023-04-21T04:08:19.250Z,53.61
2023-04-21T04:10:47.017Z,53.08
2023-04-21T04:13:14.830Z,53.30
2023-04-21T04:15:42.853Z,53.50
2023-04-21T04:18:10.871Z,53.54
2023-04-21T04:20:38.640Z,53.11
2023-04-21T04:23:08.156Z,53.28
2023-04-21T04:25:37.537Z,53.52
2023-04-21T04:28:12.871Z,53.57
2023-04-21T04:30:40.706Z,54.14
2023-04-21T04:33:09.332Z,54.47
2023-04-21T04:35:37.162Z,54.24
2023-04-21T04:38:05.019Z,54.04
2023-04-21T04:40:33.948Z,53.88
2023-04-21T04:43:02.771Z,53.58
2023-04-21T04:45:33.272Z,53.25
2023-04-21T04:48:01.147Z,53.16
2023-04-21T04:50:28.883Z,53.01
2023-04-21T04:52:57.820Z,53.30
2023-04-21T04:55:26.191Z,53.18
2023-04-21T04:57:53.992Z,53.06
2023-04-21T05:00:22.109Z,53.07
2023-04-21T05:02:49.959Z,53.28
2023-04-21T05:05:17.785Z,53.18
2023-04-21T05:07:45.980Z,53.30
2023-04-21T05:10:14.101Z,53.06
2023-04-21T05:12:41.941Z,53.07
2023-04-21T05:15:10.902Z,53.46
2023-04-21T05:17:38.731Z,53.27
2023-04-21T05:20:08.431Z,53.35
2023-04-21T05:22:41.171Z,53.33
2023-04-21T05:25:12.802Z,53.54
2023-04-21T05:27:44.346Z,53.78
2023-04-21T05:30:12.429Z,53.47
2023-04-21T05:32:40.368Z,53.86
2023-04-21T05:35:08.483Z,53.44
2023-04-21T05:37:36.534Z,53.42
2023-04-21T05:40:04.524Z,53.16
2023-04-21T05:42:32.313Z,53.23
2023-04-21T05:45:00.385Z,53.17
2023-04-21T05:47:28.068Z,53.36
2023-04-21T05:49:55.902Z,53.50
2023-04-21T05:52:23.760Z,53.20
2023-04-21T05:54:51.590Z,53.08
2023-04-21T05:57:19.607Z,53.52
2023-04-21T05:59:47.775Z,53.76
2023-04-21T06:02:15.943Z,53.39
2023-04-21T06:04:48.975Z,53.73
2023-04-21T06:07:20.456Z,53.59
2023-04-21T06:09:52.614Z,53.27
2023-04-21T06:12:20.619Z,53.39
2023-04-21T06:14:48.585Z,53.55
2023-04-21T06:17:18.104Z,53.44
2023-04-21T06:19:45.977Z,53.24
2023-04-21T06:22:16.804Z,53.23
2023-04-21T06:24:44.536Z,53.29
2023-04-21T06:27:16.185Z,52.93
2023-04-21T06:29:44.496Z,53.16
2023-04-21T06:32:12.842Z,53.14
2023-04-21T06:34:40.606Z,52.97
2023-04-21T06:37:08.476Z,53.13
2023-04-21T06:39:36.202Z,52.82
2023-04-21T06:42:04.213Z,53.18
2023-04-21T06:44:32.583Z,53.14
2023-04-21T06:47:00.372Z,52.77
2023-04-21T06:49:28.466Z,52.95
2023-04-21T06:51:56.575Z,52.80
2023-04-21T06:54:24.300Z,52.44
2023-04-21T06:56:52.504Z,52.76
2023-04-21T06:59:20.727Z,52.51
2023-04-21T07:01:52.606Z,52.36
2023-04-21T07:04:22.178Z,52.42
2023-04-21T07:06:50.107Z,52.39
2023-04-21T07:09:18.537Z,52.25
2023-04-21T07:11:46.725Z,51.96
2023-04-21T07:14:14.592Z,52.09
2023-04-21T07:16:42.471Z,51.65
2023-04-21T07:19:10.476Z,51.96
2023-04-21T07:21:38.263Z,52.11
2023-04-21T07:24:06.270Z,51.94
2023-04-21T07:26:34.497Z,51.77
2023-04-21T07:29:02.241Z,52.06
2023-04-21T07:31:30.025Z,51.81
2023-04-21T07:33:58.974Z,51.82
2023-04-21T07:36:30.553Z,51.77
2023-04-21T07:38:58.874Z,51.47
2023-04-21T07:41:27.169Z,51.52
2023-04-21T07:43:55.662Z,51.49
2023-04-21T07:46:26.129Z,51.43
2023-04-21T07:48:53.920Z,51.71
2023-04-21T07:51:21.992Z,51.15
2023-04-21T07:53:50.770Z,51.41
2023-04-21T07:56:18.734Z,51.56
2023-04-21T07:58:46.716Z,51.47
2023-04-21T08:01:15.858Z,51.35
2023-04-21T08:03:44.043Z,51.64
2023-04-21T08:06:12.360Z,51.58
2023-04-21T08:08:40.252Z,51.48
2023-04-21T08:11:09.766Z,51.03
2023-04-21T08:13:38.864Z,51.35
2023-04-21T08:16:06.888Z,51.30
2023-04-21T08:18:34.895Z,51.21
2023-04-21T08:21:02.707Z,50.64
2023-04-21T08:23:33.153Z,50.55
2023-04-21T08:26:03.914Z,50.33
2023-04-21T08:28:31.607Z,50.02
2023-04-21T08:31:00.615Z,50.17
2023-04-21T08:33:28.749Z,50.28
2023-04-21T08:36:05.584Z,50.25
2023-04-21T08:38:35.780Z,50.17
2023-04-21T08:41:04.559Z,50.03
2023-04-21T08:43:33.682Z,50.23
2023-04-21T08:46:06.427Z,49.99
2023-04-21T08:48:39.454Z,49.98
2023-04-21T08:51:12.066Z,50.05
2023-04-21T08:53:41.483Z,50.39
2023-04-21T08:56:11.664Z,50.25
2023-04-21T08:58:39.714Z,50.14
2023-04-21T09:01:07.869Z,50.18
2023-04-21T09:03:35.830Z,50.03
2023-04-21T09:06:09.412Z,49.84
2023-04-21T09:08:42.287Z,49.99
2023-04-21T09:11:14.394Z,49.91
2023-04-21T09:13:43.383Z,49.90
2023-04-21T09:16:22.529Z,49.49
2023-04-21T09:18:51.727Z,49.68
2023-04-21T09:21:20.607Z,49.62
2023-04-21T09:23:52.777Z,49.64
2023-04-21T09:26:24.761Z,49.66
2023-04-21T09:28:53.419Z,49.76
2023-04-21T09:31:26.133Z,49.70
2023-04-21T09:33:59.576Z,49.80
2023-04-21T09:36:31.100Z,49.58
2023-04-21T09:41:34.783Z,49.95
2023-04-21T09:44:05.507Z,49.93
2023-04-21T09:46:36.121Z,50.01
2023-04-21T09:49:04.989Z,50.15
2023-04-21T09:54:28.555Z,50.06
2023-04-21T09:57:04.923Z,49.74
2023-04-21T09:59:36.564Z,49.24
2023-04-21T10:02:06.255Z,49.36
2023-04-21T10:04:36.568Z,49.36
2023-04-21T10:07:05.535Z,49.15
2023-04-21T10:09:46.868Z,48.99
2023-04-21T10:12:16.049Z,50.40
2023-04-21T10:14:44.216Z,49.51
2023-04-21T10:17:12.283Z,50.32
2023-04-21T10:19:49.785Z,49.96
2023-04-21T10:22:30.723Z,49.53
2023-04-21T10:25:00.450Z,48.98
2023-04-21T10:27:36.239Z,49.38
2023-04-21T10:30:22.523Z,49.25
2023-04-21T10:33:05.033Z,48.82
2023-04-21T10:35:57.999Z,48.86
2023-04-21T10:38:41.070Z,49.13
2023-04-21T10:41:28.328Z,49.49
2023-04-21T10:44:14.630Z,49.23
2023-04-21T10:46:48.556Z,48.93
2023-04-21T10:49:26.702Z,49.09
2023-04-21T10:52:05.610Z,48.88
2023-04-21T10:54:42.212Z,48.89
2023-04-21T10:57:12.248Z,48.80
2023-04-21T10:59:40.978Z,48.91
2023-04-21T11:02:14.353Z,48.93
2023-04-21T11:04:48.429Z,48.77
2023-04-21T11:07:23.242Z,48.25
2023-04-21T11:10:08.378Z,48.34
2023-04-21T11:12:41.035Z,48.46
2023-04-21T11:15:11.344Z,48.85
2023-04-21T11:17:43.994Z,48.64
2023-04-21T11:20:11.979Z,49.01
2023-04-21T11:22:40.215Z,48.83
2023-04-21T11:25:18.597Z,48.48
2023-04-21T11:27:57.236Z,49.19
2023-04-21T11:30:35.644Z,49.05
2023-04-21T11:33:03.666Z,48.83
2023-04-21T11:35:32.205Z,48.74
2023-04-21T11:38:06.081Z,48.63
2023-04-21T11:40:50.022Z,48.73
2023-04-21T11:43:18.371Z,49.05
2023-04-21T11:45:50.065Z,49.04
2023-04-21T11:48:19.795Z,48.91
2023-04-21T11:50:49.859Z,48.83
2023-04-21T11:53:20.239Z,48.71
2023-04-21T11:55:48.149Z,48.42
2023-04-21T11:58:18.128Z,48.11
2023-04-21T12:00:46.696Z,47.46
2023-04-21T12:03:15.065Z,48.20
2023-04-21T12:05:45.699Z,48.62
2023-04-21T12:08:16.302Z,48.21
2023-04-21T12:10:50.949Z,48.10
2023-04-21T12:13:28.786Z,48.15
2023-04-21T12:15:59.390Z,48.23
2023-04-21T12:18:32.748Z,48.19
2023-04-21T12:21:03.598Z,47.69
2023-04-21T12:23:31.522Z,48.11
2023-04-21T12:25:59.821Z,47.96
2023-04-21T12:28:29.678Z,47.95
2023-04-21T12:30:57.395Z,48.01
2023-04-21T12:33:25.350Z,47.99
2023-04-21T12:35:53.354Z,47.57
2023-04-21T12:38:21.789Z,47.95
2023-04-21T12:40:49.691Z,47.90
2023-04-21T12:43:17.500Z,48.00
2023-04-21T12:45:49.168Z,47.72
2023-04-21T12:48:19.760Z,48.23
2023-04-21T12:50:47.855Z,47.53
2023-04-21T12:53:15.967Z,47.96
2023-04-21T12:55:56.847Z,47.91
2023-04-21T12:58:31.759Z,48.16
2023-04-21T13:00:59.814Z,47.50
2023-04-21T13:03:28.845Z,48.02
2023-04-21T13:05:58.259Z,47.76
2023-04-21T13:08:26.651Z,47.96
2023-04-21T13:10:56.587Z,47.82
2023-04-21T13:13:26.776Z,47.96
2023-04-21T13:15:55.444Z,47.55
2023-04-21T13:18:23.576Z,47.74
2023-04-21T13:20:51.732Z,47.57
2023-04-21T13:23:19.657Z,47.93
2023-04-21T13:25:47.388Z,47.77
2023-04-21T13:28:15.284Z,47.86
2023-04-21T13:30:43.294Z,47.47
2023-04-21T13:33:12.009Z,47.67
2023-04-21T13:35:39.876Z,48.09
2023-04-21T13:38:07.901Z,47.86
2023-04-21T13:40:35.815Z,47.84
2023-04-21T13:43:04.038Z,52.61
2023-04-21T13:45:31.906Z,51.26
2023-04-21T13:48:00.184Z,49.66
2023-04-21T13:50:28.129Z,49.01
2023-04-21T13:52:56.024Z,48.63
2023-04-21T13:55:37.903Z,48.52
2023-04-21T13:58:06.920Z,48.86
2023-04-21T14:00:35.123Z,48.86
2023-04-21T14:03:03.502Z,48.68
2023-04-21T14:05:31.843Z,49.00
2023-04-21T14:08:00.627Z,48.76
2023-04-21T14:10:28.943Z,48.35
2023-04-21T14:12:57.061Z,48.46
2023-04-21T14:15:26.592Z,48.16
2023-04-21T14:17:54.724Z,48.26
2023-04-21T14:20:23.092Z,48.61
2023-04-21T14:22:51.261Z,48.34
2023-04-21T14:25:20.968Z,48.40
2023-04-21T14:27:49.196Z,48.39
2023-04-21T14:30:17.201Z,48.39
2023-04-21T14:32:45.897Z,48.10
2023-04-21T14:35:14.625Z,48.44
2023-04-21T14:37:42.906Z,48.27
2023-04-21T14:40:11.304Z,48.32
2023-04-21T14:42:39.267Z,47.93
2023-04-21T14:45:08.273Z,48.03
2023-04-21T14:47:40.380Z,47.95
2023-04-21T14:50:09.026Z,48.09
2023-04-21T14:52:40.044Z,48.29
2023-04-21T14:55:08.403Z,48.43
2023-04-21T14:57:36.368Z,48.03
2023-04-21T15:00:06.182Z,48.21
2023-04-21T15:02:34.379Z,48.49
2023-04-21T15:05:02.279Z,48.05
2023-04-21T15:07:30.080Z,48.09
2023-04-21T15:10:00.943Z,48.39
2023-04-21T15:12:29.871Z,48.54
2023-04-21T15:14:57.737Z,48.49
2023-04-21T15:17:25.656Z,48.71
2023-04-21T15:19:53.540Z,48.86
2023-04-21T15:22:21.628Z,48.89
2023-04-21T15:24:52.222Z,48.50
2023-04-21T15:27:23.437Z,48.64
2023-04-21T15:29:51.350Z,48.78
2023-04-21T15:32:19.762Z,48.86
2023-04-21T15:34:47.691Z,48.68
2023-04-21T15:37:17.878Z,48.94
2023-04-21T15:39:45.747Z,48.76
2023-04-21T15:42:14.886Z,49.25
2023-04-21T15:44:42.861Z,49.00
2023-04-21T15:47:10.656Z,49.27
2023-04-21T15:49:38.631Z,48.75
2023-04-21T15:52:07.230Z,48.74
2023-04-21T15:54:35.857Z,48.60
2023-04-21T15:57:04.185Z,48.71
2023-04-21T15:59:32.445Z,48.60
2023-04-21T16:02:00.515Z,48.53
2023-04-21T16:04:28.717Z,48.47
2023-04-21T16:06:56.700Z,48.75
2023-04-21T16:09:24.477Z,49.04
2023-04-21T16:11:52.298Z,48.75
2023-04-21T16:14:21.511Z,48.70
2023-04-21T16:16:50.535Z,48.58
2023-04-21T16:19:18.725Z,48.91
2023-04-21T16:21:46.730Z,48.82
2023-04-21T16:24:14.976Z,48.86
2023-04-21T16:26:42.876Z,49.13
2023-04-21T16:29:11.973Z,49.43
2023-04-21T16:31:39.887Z,49.44
2023-04-21T16:34:07.930Z,49.62
2023-04-21T16:36:36.073Z,49.62
2023-04-21T16:39:03.965Z,49.53
2023-04-21T16:41:32.877Z,49.42
2023-04-21T16:44:00.951Z,49.28
2023-04-21T16:46:28.776Z,49.05
2023-04-21T16:48:56.687Z,49.04
2023-04-21T16:51:26.218Z,48.59
2023-04-21T16:53:54.948Z,49.10
2023-04-21T16:56:24.451Z,48.29
2023-04-21T16:58:53.471Z,47.62
2023-04-21T17:01:21.611Z,47.65
2023-04-21T17:03:49.676Z,47.34
2023-04-21T17:06:21.603Z,46.99
2023-04-21T17:08:49.476Z,46.67
2023-04-21T17:11:17.454Z,46.65
2023-04-21T17:13:45.339Z,46.83
2023-04-21T17:16:14.093Z,47.06
2023-04-21T17:18:41.914Z,46.39
2023-04-21T17:21:09.780Z,45.90
2023-04-21T17:23:37.627Z,45.86
2023-04-21T17:26:06.720Z,46.60
2023-04-21T17:28:35.229Z,47.18
2023-04-21T17:31:14.568Z,47.90
2023-04-21T17:33:44.685Z,47.85
2023-04-21T17:36:12.690Z,48.01
2023-04-21T17:38:42.822Z,47.98
2023-04-21T17:41:10.880Z,48.16
2023-04-21T17:43:38.778Z,48.36
2023-04-21T17:46:10.363Z,48.62
2023-04-21T17:48:39.776Z,48.65
2023-04-21T17:51:07.683Z,49.02
2023-04-21T17:53:36.062Z,49.45
2023-04-21T17:56:04.125Z,50.07
2023-04-21T17:58:32.105Z,49.95
2023-04-21T18:00:59.899Z,50.12
2023-04-21T18:03:28.623Z,50.39
2023-04-21T18:05:56.671Z,50.22
2023-04-21T18:08:25.112Z,50.82
2023-04-21T18:10:54.907Z,50.57
2023-04-21T18:13:22.740Z,50.77
2023-04-21T18:15:50.876Z,51.25
2023-04-21T18:18:18.859Z,51.19
2023-04-21T18:20:47.203Z,51.12
2023-04-21T18:23:31.113Z,51.59
2023-04-21T18:26:00.002Z,51.44
2023-04-21T18:28:29.777Z,51.72
2023-04-21T18:31:01.213Z,51.50
2023-04-21T18:33:29.628Z,51.96
2023-04-21T18:35:58.247Z,51.58
2023-04-21T18:38:26.730Z,51.85
2023-04-21T18:41:07.908Z,51.75
2023-04-21T18:43:37.683Z,51.74
2023-04-21T18:46:06.919Z,51.58
2023-04-21T18:48:34.918Z,51.43
2023-04-21T18:51:03.005Z,50.93
2023-04-21T18:53:31.315Z,51.18
2023-04-21T18:55:59.265Z,51.37
2023-04-21T18:58:27.362Z,51.48
2023-04-21T19:00:56.266Z,51.41
2023-04-21T19:03:25.549Z,51.44
2023-04-21T19:05:53.775Z,51.25
2023-04-21T19:08:38.258Z,51.63
2023-04-21T19:11:14.411Z,51.49
2023-04-21T19:13:42.818Z,51.15
2023-04-21T19:16:12.475Z,51.20
2023-04-21T19:18:46.101Z,51.32
2023-04-21T19:21:15.704Z,51.41
2023-04-21T19:23:46.628Z,51.58
2023-04-21T19:26:22.040Z,51.42
2023-04-21T19:28:49.950Z,51.50
2023-04-21T19:31:23.465Z,51.47
2023-04-21T19:33:52.765Z,51.58
2023-04-21T19:36:24.289Z,51.83
2023-04-21T19:38:55.751Z,51.62
2023-04-21T19:41:24.603Z,51.14
2023-04-21T19:43:52.961Z,51.33
2023-04-21T19:46:21.859Z,53.16
2023-04-21T19:48:50.435Z,51.94
2023-04-21T19:51:19.141Z,50.91
2023-04-21T19:53:51.404Z,50.93
2023-04-21T19:56:33.201Z,50.38
2023-04-21T19:59:06.870Z,50.48
2023-04-21T20:01:36.215Z,49.73
2023-04-21T20:04:09.265Z,49.82
2023-04-21T20:06:40.305Z,49.54
2023-04-21T20:09:19.220Z,49.52
2023-04-21T20:11:57.527Z,49.64
2023-04-21T20:14:35.074Z,49.47
2023-04-21T20:17:04.599Z,50.04
2023-04-21T20:19:32.583Z,50.76
2023-04-21T20:22:03.993Z,51.67
2023-04-21T20:24:35.933Z,51.42
2023-04-21T20:27:05.352Z,50.85
2023-04-21T20:29:40.603Z,49.49
2023-04-21T20:32:15.847Z,49.27
2023-04-21T20:34:46.779Z,49.17
2023-04-21T20:37:15.358Z,49.33
2023-04-21T20:39:43.315Z,49.60
2023-04-21T20:42:13.519Z,49.61
2023-04-21T20:44:43.619Z,50.02
2023-04-21T20:47:12.302Z,50.24
2023-04-21T20:49:41.564Z,50.88
2023-04-21T20:52:09.620Z,50.83
2023-04-21T20:54:40.212Z,51.22
2023-04-21T20:57:09.183Z,51.14
2023-04-21T20:59:37.591Z,51.60
2023-04-21T21:02:06.198Z,51.44
2023-04-21T21:04:34.284Z,51.69
2023-04-21T21:07:02.214Z,51.72
2023-04-21T21:09:31.733Z,51.85
2023-04-21T21:11:59.809Z,51.81
2023-04-21T21:14:27.665Z,51.32
2023-04-21T21:16:56.593Z,51.23
2023-04-21T21:19:25.147Z,50.84
2023-04-21T21:21:55.550Z,50.55
2023-04-21T21:24:23.514Z,50.14
2023-04-21T21:26:51.477Z,49.64
2023-04-21T21:29:19.744Z,49.52
2023-04-21T21:31:47.728Z,49.76
2023-04-21T21:34:18.115Z,49.82
2023-04-21T21:36:46.064Z,50.00
2023-04-21T21:39:15.209Z,50.29
2023-04-21T21:41:43.907Z,50.33
2023-04-21T21:44:11.783Z,50.34
2023-04-21T21:46:43.737Z,50.83
2023-04-21T21:49:11.794Z,50.80
2023-04-21T21:51:39.745Z,51.20
2023-04-21T21:54:07.852Z,51.38
2023-04-21T21:56:39.852Z,50.96
2023-04-21T21:59:10.132Z,51.08
2023-04-21T22:01:39.467Z,51.72
2023-04-21T22:04:07.744Z,52.17
2023-04-21T22:06:36.360Z,52.15
2023-04-21T22:09:05.480Z,52.03
2023-04-21T22:11:33.754Z,52.53
2023-04-21T22:14:14.511Z,52.24
2023-04-21T22:16:51.222Z,53.22
2023-04-21T22:19:19.605Z,52.55
2023-04-21T22:21:47.927Z,52.49
2023-04-21T22:24:15.955Z,52.21
2023-04-21T22:26:44.937Z,52.14
2023-04-21T22:29:13.176Z,52.37
2023-04-21T22:31:42.635Z,52.03
2023-04-21T22:34:13.132Z,52.33
2023-04-21T22:36:41.392Z,52.15
2023-04-21T22:39:09.655Z,52.22
2023-04-21T22:41:38.825Z,52.09
2023-04-21T22:44:06.730Z,51.98
2023-04-21T22:46:34.912Z,52.11
2023-04-21T22:49:04.162Z,52.21
2023-04-21T22:51:35.676Z,51.86
2023-04-21T22:54:03.874Z,51.75
2023-04-21T22:56:33.029Z,51.37
2023-04-21T22:59:01.088Z,51.36
2023-04-21T23:01:29.455Z,51.42
2023-04-21T23:03:57.788Z,51.14
2023-04-21T23:06:25.830Z,50.99
2023-04-21T23:08:53.771Z,50.83
2023-04-21T23:11:21.806Z,51.05
2023-04-21T23:13:49.954Z,51.00
2023-04-21T23:16:19.834Z,50.55
2023-04-21T23:18:47.787Z,50.66
2023-04-21T23:21:15.717Z,50.46
2023-04-21T23:23:43.548Z,50.64
2023-04-21T23:26:15.835Z,50.63
2023-04-21T23:28:43.643Z,50.58
2023-04-21T23:31:14.186Z,50.46
2023-04-21T23:33:42.626Z,50.58
2023-04-21T23:36:10.656Z,50.50
2023-04-21T23:38:38.693Z,50.77
2023-04-21T23:41:08.329Z,50.54
2023-04-21T23:43:37.496Z,50.63
2023-04-21T23:46:05.468Z,50.51
2023-04-21T23:48:34.411Z,50.65
2023-04-21T23:51:02.927Z,50.12
2023-04-21T23:53:30.885Z,50.51
2023-04-21T23:55:59.023Z,50.44
2023-04-21T23:58:27.193Z,50.53
